createdAt,value
2018-03-20T00:02:05.805Z,-1.50
2018-03-20T00:04:33.314Z,-1.50
2018-03-20T00:07:00.243Z,-1.50
2018-03-20T00:09:27.876Z,-1.40
2018-03-20T00:11:54.813Z,-1.50
2018-03-20T00:14:21.681Z,-1.50
2018-03-20T00:16:48.626Z,-1.40
2018-03-20T00:19:15.511Z,-1.40
2018-03-20T00:21:42.393Z,-1.40
2018-03-20T00:24:09.349Z,-1.40
2018-03-20T00:26:36.382Z,-1.30
2018-03-20T00:29:03.328Z,-1.20
2018-03-20T00:31:30.315Z,-1.40
2018-03-20T00:33:57.183Z,-1.30
2018-03-20T00:36:24.119Z,-1.50
2018-03-20T00:38:51.747Z,-1.60
2018-03-20T00:41:18.700Z,-1.60
2018-03-20T00:43:45.572Z,-1.50
2018-03-20T00:46:13.248Z,-1.60
2018-03-20T00:48:40.121Z,-1.60
2018-03-20T00:51:06.999Z,-1.60
2018-03-20T00:53:33.935Z,-1.60
2018-03-20T00:56:00.944Z,-1.60
2018-03-20T00:58:27.827Z,-1.50
2018-03-20T01:00:54.818Z,-1.60
2018-03-20T01:03:21.759Z,-1.60
2018-03-20T01:05:48.688Z,-1.50
2018-03-20T01:08:16.337Z,-1.60
2018-03-20T01:10:43.275Z,-1.60
2018-03-20T01:13:10.154Z,-1.60
2018-03-20T01:15:37.827Z,-1.50
2018-03-20T01:18:04.704Z,-1.50
2018-03-20T01:20:31.638Z,-1.70
2018-03-20T01:22:58.499Z,-1.60
2018-03-20T01:25:25.441Z,-1.60
2018-03-20T01:27:52.316Z,-1.50
2018-03-20T01:30:19.321Z,-1.50
2018-03-20T01:32:46.277Z,-1.60
2018-03-20T01:35:13.199Z,-1.60
2018-03-20T01:37:40.140Z,-1.70
2018-03-20T01:40:07.008Z,-1.60
2018-03-20T01:42:33.928Z,-1.50
2018-03-20T01:45:00.808Z,-1.50
2018-03-20T01:47:27.748Z,-1.50
2018-03-20T01:49:54.606Z,-1.40
2018-03-20T01:52:25.489Z,-1.40
2018-03-20T01:54:53.263Z,-1.30
2018-03-20T01:57:20.229Z,-1.30
2018-03-20T01:59:47.099Z,-1.40
2018-03-20T02:02:13.984Z,-1.30
2018-03-20T02:04:41.707Z,-1.50
2018-03-20T02:07:08.586Z,-1.50
2018-03-20T02:09:35.523Z,-1.60
2018-03-20T02:12:02.402Z,-1.50
2018-03-20T02:14:30.083Z,-1.50
2018-03-20T02:16:57.049Z,-1.50
2018-03-20T02:19:24.017Z,-1.50
2018-03-20T02:21:50.887Z,-1.50
2018-03-20T02:24:18.500Z,-1.60
2018-03-20T02:26:45.500Z,-1.60
2018-03-20T02:29:13.183Z,-1.80
2018-03-20T02:31:40.204Z,-1.80
2018-03-20T02:34:07.070Z,-1.80
2018-03-20T02:36:34.052Z,-1.90
2018-03-20T02:39:00.935Z,-1.90
2018-03-20T02:41:27.874Z,-1.90
2018-03-20T02:43:54.761Z,-1.80
2018-03-20T02:46:21.803Z,-1.70
2018-03-20T02:48:49.416Z,-1.80
2018-03-20T02:51:16.349Z,-1.90
2018-03-20T02:53:43.367Z,-1.80
2018-03-20T02:56:10.312Z,-1.80
2018-03-20T02:58:37.196Z,-1.80
2018-03-20T03:01:04.066Z,-1.80
2018-03-20T03:03:31.773Z,-1.80
2018-03-20T03:05:58.636Z,-1.80
2018-03-20T03:08:25.592Z,-1.90
2018-03-20T03:10:52.531Z,-1.80
2018-03-20T03:13:19.487Z,-1.90
2018-03-20T03:15:46.427Z,-2.00
2018-03-20T03:18:13.363Z,-2.00
2018-03-20T03:20:40.312Z,-2.00
2018-03-20T03:23:07.198Z,-2.00
2018-03-20T03:25:34.135Z,-2.10
2018-03-20T03:28:01.008Z,-2.10
2018-03-20T03:30:27.948Z,-2.20
2018-03-20T03:32:54.908Z,-2.20
2018-03-20T03:35:21.860Z,-2.20
2018-03-20T03:37:48.733Z,-2.20
2018-03-20T03:40:15.684Z,-2.20
2018-03-20T03:42:42.544Z,-2.20
2018-03-20T03:45:09.445Z,-2.20
2018-03-20T03:47:36.383Z,-2.30
2018-03-20T03:50:03.421Z,-2.30
2018-03-20T03:52:30.285Z,-2.30
2018-03-20T03:54:57.249Z,-2.30
2018-03-20T03:57:24.190Z,-2.40
2018-03-20T03:59:51.076Z,-2.40
2018-03-20T04:02:18.000Z,-2.40
2018-03-20T04:04:44.916Z,-2.50
2018-03-20T04:07:11.796Z,-2.50
2018-03-20T04:09:38.755Z,-2.40
2018-03-20T04:12:05.699Z,-2.30
2018-03-20T04:14:32.582Z,-2.20
2018-03-20T04:17:00.260Z,-2.10
2018-03-20T04:19:27.283Z,-2.10
2018-03-20T04:21:54.896Z,-1.90
2018-03-20T04:24:21.777Z,-2.00
2018-03-20T04:26:48.716Z,-1.90
2018-03-20T04:29:15.591Z,-1.80
2018-03-20T04:31:42.545Z,-1.80
2018-03-20T04:34:09.421Z,-1.90
2018-03-20T04:36:36.355Z,-1.80
2018-03-20T04:39:03.381Z,-1.80
2018-03-20T04:41:30.326Z,-1.90
2018-03-20T04:43:57.203Z,-1.90
2018-03-20T04:46:24.138Z,-1.90
2018-03-20T04:48:51.014Z,-1.90
2018-03-20T04:51:17.891Z,-2.00
2018-03-20T04:53:45.685Z,-2.10
2018-03-20T04:56:12.573Z,-2.10
2018-03-20T04:58:39.528Z,-2.20
2018-03-20T05:01:06.433Z,-2.20
2018-03-20T05:03:36.709Z,-2.20
2018-03-20T05:06:05.999Z,-2.30
2018-03-20T05:08:34.716Z,-2.30
2018-03-20T05:11:01.640Z,-2.40
2018-03-20T05:13:28.525Z,-2.40
2018-03-20T05:15:58.265Z,-2.50
2018-03-20T05:18:25.216Z,-2.50
2018-03-20T05:21:07.368Z,-2.60
2018-03-20T05:23:40.260Z,-2.60
2018-03-20T05:26:08.085Z,-2.80
2018-03-20T05:28:35.092Z,-2.80
2018-03-20T05:31:02.228Z,-2.80
2018-03-20T05:33:29.224Z,-2.90
2018-03-20T05:35:59.191Z,-2.90
2018-03-20T05:38:38.526Z,-2.80
2018-03-20T05:41:06.437Z,-2.70
2018-03-20T05:43:33.500Z,-2.60
2018-03-20T05:46:00.518Z,-2.60
2018-03-20T05:48:27.473Z,-2.60
2018-03-20T05:51:00.498Z,-2.60
2018-03-20T05:53:27.543Z,-2.80
2018-03-20T05:55:54.485Z,-2.80
2018-03-20T05:58:21.357Z,-2.80
2018-03-20T06:00:49.094Z,-2.70
2018-03-20T06:03:16.051Z,-2.80
2018-03-20T06:05:42.945Z,-2.70
2018-03-20T06:08:10.341Z,-2.50
2018-03-20T06:10:37.368Z,-2.50
2018-03-20T06:13:04.320Z,-2.30
2018-03-20T06:15:31.308Z,-1.60
2018-03-20T06:17:58.196Z,-1.10
2018-03-20T06:20:25.132Z,-1.20
2018-03-20T06:22:52.035Z,-0.70
2018-03-20T06:25:19.723Z,0.00
2018-03-20T06:27:46.664Z,0.00
2018-03-20T06:30:13.687Z,0.90
2018-03-20T06:32:40.564Z,2.50
2018-03-20T06:35:07.568Z,3.30
2018-03-20T06:37:34.524Z,3.10
2018-03-20T06:40:01.435Z,2.50
2018-03-20T06:42:28.406Z,1.80
2018-03-20T06:44:56.079Z,0.60
2018-03-20T06:47:23.068Z,0.50
2018-03-20T06:49:50.025Z,0.30
2018-03-20T06:52:16.952Z,0.30
2018-03-20T06:54:43.928Z,1.00
2018-03-20T06:57:10.861Z,1.80
2018-03-20T06:59:37.911Z,1.60
2018-03-20T07:02:04.872Z,1.30
2018-03-20T07:04:31.807Z,1.10
2018-03-20T07:06:58.691Z,1.00
2018-03-20T07:09:25.705Z,1.10
2018-03-20T07:11:52.637Z,1.20
2018-03-20T07:14:19.574Z,1.40
2018-03-20T07:16:46.497Z,1.60
2018-03-20T07:19:14.177Z,2.30
2018-03-20T07:21:41.132Z,2.20
2018-03-20T07:24:08.104Z,2.70
2018-03-20T07:26:35.014Z,2.80
2018-03-20T07:29:01.992Z,2.70
2018-03-20T07:31:28.921Z,2.60
2018-03-20T07:33:55.862Z,2.50
2018-03-20T07:36:22.840Z,2.40
2018-03-20T07:38:49.789Z,2.40
2018-03-20T07:41:17.011Z,2.40
2018-03-20T07:43:46.778Z,2.70
2018-03-20T07:46:13.875Z,3.10
2018-03-20T07:48:41.069Z,3.30
2018-03-20T07:51:07.957Z,3.40
2018-03-20T07:53:34.859Z,3.30
2018-03-20T07:56:01.829Z,3.20
2018-03-20T07:58:28.719Z,3.10
2018-03-20T08:00:55.662Z,3.00
2018-03-20T08:03:22.613Z,2.90
2018-03-20T08:05:49.498Z,2.90
2018-03-20T08:08:18.120Z,2.90
2018-03-20T08:10:45.868Z,2.70
2018-03-20T08:13:12.781Z,2.70
2018-03-20T08:15:39.784Z,2.50
2018-03-20T08:18:06.772Z,2.50
2018-03-20T08:20:33.715Z,2.40
2018-03-20T08:23:00.661Z,2.40
2018-03-20T08:25:27.540Z,2.60
2018-03-20T08:27:55.232Z,2.60
2018-03-20T08:30:22.127Z,2.50
2018-03-20T08:32:49.079Z,2.60
2018-03-20T08:35:16.066Z,2.60
2018-03-20T08:37:43.727Z,2.60
2018-03-20T08:40:10.681Z,2.50
2018-03-20T08:42:37.621Z,2.50
2018-03-20T08:45:04.600Z,2.50
2018-03-20T08:47:31.543Z,2.50
2018-03-20T08:49:58.555Z,2.50
2018-03-20T08:52:25.449Z,2.40
2018-03-20T08:54:52.426Z,2.50
2018-03-20T08:57:19.376Z,2.50
2018-03-20T08:59:46.321Z,2.50
2018-03-20T09:02:13.268Z,2.50
2018-03-20T09:04:40.163Z,2.60
2018-03-20T09:07:07.145Z,2.50
2018-03-20T09:09:34.034Z,2.40
2018-03-20T09:12:00.976Z,2.30
2018-03-20T09:14:27.850Z,2.30
2018-03-20T09:16:54.784Z,2.50
2018-03-20T09:19:21.667Z,2.60
2018-03-20T09:21:48.666Z,2.60
2018-03-20T09:24:15.645Z,2.70
2018-03-20T09:26:42.555Z,2.80
2018-03-20T09:29:09.578Z,2.60
2018-03-20T09:31:36.443Z,2.60
2018-03-20T09:34:04.198Z,2.50
2018-03-20T09:36:31.097Z,2.40
2018-03-20T09:38:58.039Z,2.60
2018-03-20T09:41:25.013Z,2.70
2018-03-20T09:43:51.932Z,2.70
2018-03-20T09:46:19.673Z,3.10
2018-03-20T09:48:46.680Z,3.10
2018-03-20T09:51:13.753Z,3.40
2018-03-20T09:53:40.712Z,3.50
2018-03-20T09:56:09.124Z,3.60
2018-03-20T09:58:37.259Z,3.90
2018-03-20T10:01:04.265Z,3.90
2018-03-20T10:03:31.173Z,4.00
2018-03-20T10:05:58.153Z,4.40
2018-03-20T10:08:25.082Z,4.50
2018-03-20T10:10:52.693Z,4.70
2018-03-20T10:13:19.668Z,5.00
2018-03-20T10:15:46.650Z,4.90
2018-03-20T10:18:13.664Z,5.90
2018-03-20T10:20:46.851Z,6.30
2018-03-20T10:23:15.185Z,6.70
2018-03-20T10:25:48.627Z,7.00
2018-03-20T10:28:15.732Z,6.70
2018-03-20T10:30:43.568Z,6.30
2018-03-20T10:33:13.180Z,5.70
2018-03-20T10:35:40.116Z,5.50
2018-03-20T10:38:07.711Z,5.10
2018-03-20T10:40:45.700Z,5.20
2018-03-20T10:43:13.297Z,5.20
2018-03-20T10:45:40.989Z,5.00
2018-03-20T10:48:07.881Z,5.00
2018-03-20T10:50:36.340Z,5.00
2018-03-20T10:53:10.969Z,4.90
2018-03-20T10:55:38.920Z,4.80
2018-03-20T10:58:07.597Z,4.80
2018-03-20T11:00:57.789Z,4.80
2018-03-20T11:03:25.678Z,4.60
2018-03-20T11:05:57.942Z,4.50
2018-03-20T11:08:25.623Z,4.50
2018-03-20T11:10:54.113Z,4.80
2018-03-20T11:13:24.539Z,5.00
2018-03-20T11:15:51.424Z,5.10
2018-03-20T11:18:26.391Z,5.40
2018-03-20T11:20:54.352Z,5.30
2018-03-20T11:23:22.600Z,5.50
2018-03-20T11:25:50.020Z,5.50
2018-03-20T11:28:16.964Z,5.60
2018-03-20T11:30:43.920Z,5.70
2018-03-20T11:33:10.954Z,5.90
2018-03-20T11:35:44.981Z,5.90
2018-03-20T11:38:12.949Z,6.00
2018-03-20T11:40:39.916Z,6.20
2018-03-20T11:43:06.875Z,6.40
2018-03-20T11:45:34.500Z,6.70
2018-03-20T11:48:01.487Z,6.60
2018-03-20T11:50:29.249Z,7.50
2018-03-20T11:52:56.868Z,7.90
2018-03-20T11:55:23.872Z,7.80
2018-03-20T11:57:51.503Z,7.90
2018-03-20T12:00:31.904Z,7.80
2018-03-20T12:03:13.159Z,8.30
2018-03-20T12:05:40.521Z,8.50
2018-03-20T12:08:24.792Z,8.80
2018-03-20T12:10:52.044Z,8.80
2018-03-20T12:13:20.540Z,8.70
2018-03-20T12:15:49.488Z,8.40
2018-03-20T12:18:16.512Z,8.20
2018-03-20T12:20:51.879Z,8.20
2018-03-20T12:23:25.528Z,7.90
2018-03-20T12:25:52.490Z,7.80
2018-03-20T12:28:19.448Z,7.80
2018-03-20T12:30:46.417Z,7.80
2018-03-20T12:33:13.434Z,7.70
2018-03-20T12:35:40.321Z,8.00
2018-03-20T12:38:13.996Z,8.00
2018-03-20T12:40:43.673Z,7.70
2018-03-20T12:43:11.208Z,7.60
2018-03-20T12:45:39.986Z,7.40
2018-03-20T12:48:06.883Z,7.20
2018-03-20T12:53:27.202Z,6.40
2018-03-20T12:56:03.705Z,6.00
2018-03-20T12:58:30.673Z,6.00
2018-03-20T13:00:58.928Z,5.50
2018-03-20T13:03:26.618Z,5.50
2018-03-20T13:05:54.442Z,4.60
2018-03-20T13:08:36.129Z,4.60
2018-03-20T13:11:04.859Z,4.60
2018-03-20T13:16:13.313Z,4.50
2018-03-20T13:18:42.871Z,4.20
2018-03-20T13:21:19.401Z,4.10
2018-03-20T13:23:50.773Z,3.90
2018-03-20T13:26:20.330Z,3.90
2018-03-20T13:28:47.210Z,3.90
2018-03-20T13:31:18.839Z,3.50
2018-03-20T13:33:49.632Z,3.50
2018-03-20T13:36:17.383Z,3.50
2018-03-20T13:38:53.517Z,3.10
2018-03-20T13:41:23.140Z,2.70
2018-03-20T13:44:04.344Z,2.70
2018-03-20T13:46:41.037Z,3.00
2018-03-20T13:49:10.458Z,3.00
2018-03-20T13:51:50.637Z,3.20
2018-03-20T13:54:27.434Z,3.30
2018-03-20T13:56:54.348Z,3.40
2018-03-20T13:59:21.308Z,3.50
2018-03-20T14:01:48.253Z,3.70
2018-03-20T14:04:26.015Z,3.60
2018-03-20T14:06:58.097Z,3.70
2018-03-20T14:09:25.278Z,3.20
2018-03-20T14:11:52.233Z,3.60
2018-03-20T14:14:27.143Z,3.40
2018-03-20T14:16:55.180Z,3.40
2018-03-20T14:19:28.435Z,3.30
2018-03-20T14:22:12.109Z,3.50
2018-03-20T14:24:38.989Z,3.70
2018-03-20T14:27:05.943Z,3.70
2018-03-20T14:29:35.123Z,3.80
2018-03-20T14:34:41.604Z,4.00
2018-03-20T14:39:56.768Z,4.20
2018-03-20T14:42:23.893Z,4.20
2018-03-20T14:44:51.602Z,4.50
2018-03-20T14:47:27.757Z,4.50
2018-03-20T14:49:54.753Z,4.90
2018-03-20T14:52:23.652Z,4.40
2018-03-20T14:54:58.868Z,4.80
2018-03-20T14:57:27.408Z,4.60
2018-03-20T14:59:54.599Z,4.40
2018-03-20T15:02:30.235Z,4.50
2018-03-20T15:04:58.464Z,4.60
2018-03-20T15:07:32.528Z,4.40
2018-03-20T15:10:03.087Z,4.30
2018-03-20T15:12:30.064Z,4.50
2018-03-20T15:14:57.323Z,4.20
2018-03-20T15:17:30.244Z,4.30
2018-03-20T15:19:57.810Z,4.10
2018-03-20T15:22:33.570Z,4.20
2018-03-20T15:25:01.589Z,4.00
2018-03-20T15:27:42.224Z,4.10
2018-03-20T15:30:14.940Z,4.00
2018-03-20T15:32:49.841Z,4.00
2018-03-20T15:35:24.414Z,4.20
2018-03-20T15:38:06.898Z,4.20
2018-03-20T15:40:35.968Z,4.00
2018-03-20T15:43:06.507Z,4.00
2018-03-20T15:45:42.180Z,4.00
2018-03-20T15:48:09.076Z,3.80
2018-03-20T15:50:38.904Z,3.80
2018-03-20T15:53:15.982Z,4.10
2018-03-20T15:55:43.175Z,4.20
2018-03-20T15:58:21.618Z,4.20
2018-03-20T16:00:49.380Z,4.20
2018-03-20T16:03:16.336Z,4.50
2018-03-20T16:05:43.231Z,4.30
2018-03-20T16:08:10.200Z,4.30
2018-03-20T16:10:37.139Z,4.20
2018-03-20T16:13:04.072Z,4.30
2018-03-20T16:15:31.052Z,4.20
2018-03-20T16:17:58.017Z,4.10
2018-03-20T16:20:24.906Z,4.00
2018-03-20T16:22:55.365Z,3.90
2018-03-20T16:25:22.326Z,3.90
2018-03-20T16:27:49.217Z,3.90
2018-03-20T16:30:16.170Z,3.50
2018-03-20T16:32:43.859Z,3.60
2018-03-20T16:35:10.859Z,3.60
2018-03-20T16:37:43.085Z,3.30
2018-03-20T16:40:15.992Z,3.30
2018-03-20T16:42:52.675Z,3.50
2018-03-20T16:45:33.058Z,3.60
2018-03-20T16:48:11.058Z,3.70
2018-03-20T16:50:46.677Z,3.40
2018-03-20T16:53:23.713Z,3.50
2018-03-20T16:56:00.290Z,3.50
2018-03-20T16:58:36.241Z,3.50
2018-03-20T17:01:12.976Z,3.70
2018-03-20T17:03:53.001Z,3.80
2018-03-20T17:06:36.654Z,3.90
2018-03-20T17:09:13.256Z,3.90
2018-03-20T17:11:52.342Z,4.00
2018-03-20T17:14:30.763Z,4.00
2018-03-20T17:17:11.315Z,3.80
2018-03-20T17:19:47.486Z,3.80
2018-03-20T17:22:22.243Z,4.00
2018-03-20T17:24:51.667Z,4.10
2018-03-20T17:27:26.572Z,4.10
2018-03-20T17:30:05.202Z,4.10
2018-03-20T17:32:40.654Z,3.80
2018-03-20T17:35:15.169Z,3.70
2018-03-20T17:37:44.333Z,3.70
2018-03-20T17:40:12.759Z,3.70
2018-03-20T17:42:48.405Z,3.70
2018-03-20T17:45:22.400Z,3.80
2018-03-20T17:47:50.779Z,4.00
2018-03-20T17:50:24.043Z,4.10
2018-03-20T17:52:52.635Z,4.30
2018-03-20T17:55:19.520Z,4.60
2018-03-20T17:57:49.377Z,4.60
2018-03-20T18:00:17.202Z,4.60
2018-03-20T18:02:44.168Z,4.60
2018-03-20T18:05:11.047Z,4.50
2018-03-20T18:07:38.020Z,4.40
2018-03-20T18:10:04.909Z,4.40
2018-03-20T18:12:31.856Z,4.50
2018-03-20T18:14:58.755Z,4.40
2018-03-20T18:17:25.727Z,4.50
2018-03-20T18:19:52.690Z,4.40
2018-03-20T18:22:19.573Z,4.30
2018-03-20T18:24:46.543Z,4.20
2018-03-20T18:27:13.434Z,4.10
2018-03-20T18:29:40.374Z,4.00
2018-03-20T18:32:07.334Z,3.90
2018-03-20T18:34:34.324Z,3.70
2018-03-20T18:37:15.437Z,3.60
2018-03-20T18:39:43.310Z,3.60
2018-03-20T18:42:10.411Z,3.50
2018-03-20T18:44:37.288Z,3.50
2018-03-20T18:47:04.251Z,3.50
2018-03-20T18:49:36.671Z,3.50
2018-03-20T18:52:08.472Z,3.50
2018-03-20T18:54:35.347Z,3.40
2018-03-20T18:57:02.331Z,3.30
2018-03-20T18:59:29.375Z,3.20
2018-03-20T19:01:56.253Z,3.10
2018-03-20T19:04:23.259Z,3.10
2018-03-20T19:06:50.217Z,3.00
2018-03-20T19:09:17.188Z,2.90
2018-03-20T19:11:49.158Z,2.90
2018-03-20T19:14:16.137Z,2.80
2018-03-20T19:16:50.548Z,2.80
2018-03-20T19:19:17.508Z,2.70
2018-03-20T19:21:44.404Z,2.60
2018-03-20T19:24:11.352Z,2.40
2018-03-20T19:26:38.318Z,2.30
2018-03-20T19:29:05.334Z,2.20
2018-03-20T19:31:32.300Z,2.10
2018-03-20T19:33:59.220Z,2.20
2018-03-20T19:36:26.178Z,2.20
2018-03-20T19:38:53.138Z,2.30
2018-03-20T19:41:20.096Z,2.30
2018-03-20T19:43:47.034Z,2.10
2018-03-20T19:46:14.068Z,2.00
2018-03-20T19:48:41.051Z,1.90
2018-03-20T19:51:08.011Z,1.90
2018-03-20T19:53:34.900Z,1.80
2018-03-20T19:56:01.828Z,1.80
2018-03-20T19:58:28.782Z,1.70
2018-03-20T20:00:55.707Z,1.80
2018-03-20T20:03:23.421Z,1.90
2018-03-20T20:05:50.392Z,1.80
2018-03-20T20:08:17.296Z,1.90
2018-03-20T20:10:44.264Z,1.90
2018-03-20T20:13:11.245Z,1.80
2018-03-20T20:15:38.195Z,1.80
2018-03-20T20:18:05.132Z,1.70
2018-03-20T20:20:32.099Z,1.70
2018-03-20T20:22:59.726Z,1.60
2018-03-20T20:25:26.688Z,1.60
2018-03-20T20:27:53.668Z,1.70
2018-03-20T20:30:20.586Z,1.60
2018-03-20T20:32:47.595Z,1.60
2018-03-20T20:35:14.484Z,1.50
2018-03-20T20:37:41.429Z,1.50
2018-03-20T20:40:08.376Z,1.60
2018-03-20T20:42:35.325Z,1.50
2018-03-20T20:45:02.284Z,1.50
2018-03-20T20:47:29.896Z,1.50
2018-03-20T20:49:56.841Z,1.50
2018-03-20T20:52:23.812Z,1.60
2018-03-20T20:54:50.785Z,1.50
2018-03-20T20:57:18.501Z,1.50
2018-03-20T20:59:45.405Z,1.50
2018-03-20T21:02:12.348Z,1.50
2018-03-20T21:04:39.244Z,1.60
2018-03-20T21:07:06.180Z,1.50
2018-03-20T21:09:33.048Z,1.50
2018-03-20T21:11:59.983Z,1.40
2018-03-20T21:14:26.941Z,1.30
2018-03-20T21:16:53.943Z,1.30
2018-03-20T21:19:20.828Z,1.30
2018-03-20T21:21:50.102Z,1.30
2018-03-20T21:24:17.065Z,1.30
2018-03-20T21:26:43.959Z,1.30
2018-03-20T21:29:10.927Z,1.30
2018-03-20T21:31:37.960Z,1.30
2018-03-20T21:34:04.923Z,1.30
2018-03-20T21:36:31.796Z,1.00
2018-03-20T21:38:58.759Z,1.10
2018-03-20T21:41:25.637Z,1.10
2018-03-20T21:43:53.388Z,1.00
2018-03-20T21:46:20.351Z,1.00
2018-03-20T21:48:47.325Z,1.00
2018-03-20T21:51:14.307Z,1.00
2018-03-20T21:53:41.228Z,1.10
2018-03-20T21:56:08.245Z,0.90
2018-03-20T21:58:35.189Z,1.00
2018-03-20T22:01:02.842Z,1.00
2018-03-20T22:03:30.564Z,1.00
2018-03-20T22:05:57.432Z,0.90
2018-03-20T22:08:24.379Z,1.00
2018-03-20T22:10:51.271Z,1.00
2018-03-20T22:13:18.153Z,0.90
2018-03-20T22:15:45.111Z,0.90
2018-03-20T22:18:12.005Z,1.00
2018-03-20T22:20:38.910Z,0.90
2018-03-20T22:23:06.586Z,0.90
2018-03-20T22:25:34.325Z,1.00
2018-03-20T22:28:01.284Z,0.90
2018-03-20T22:30:29.050Z,0.90
2018-03-20T22:32:56.064Z,0.90
2018-03-20T22:35:35.002Z,0.80
2018-03-20T22:38:02.552Z,0.80
2018-03-20T22:40:40.581Z,0.80
2018-03-20T22:43:17.755Z,0.90
2018-03-20T22:45:56.078Z,0.90
2018-03-20T22:48:34.821Z,0.90
2018-03-20T22:51:14.424Z,1.00
2018-03-20T22:53:48.561Z,0.90
2018-03-20T22:56:15.453Z,0.90
2018-03-20T22:58:54.614Z,0.90
2018-03-20T23:01:34.002Z,0.90
2018-03-20T23:04:13.992Z,0.80
2018-03-20T23:06:43.016Z,0.80
2018-03-20T23:09:20.208Z,0.70
2018-03-20T23:11:47.831Z,0.70
2018-03-20T23:14:14.807Z,0.70
2018-03-20T23:16:41.695Z,0.60
2018-03-20T23:19:09.408Z,0.70
2018-03-20T23:21:36.327Z,0.60
2018-03-20T23:24:03.236Z,0.70
2018-03-20T23:26:30.166Z,0.70
2018-03-20T23:28:57.091Z,0.70
2018-03-20T23:31:24.013Z,0.70
2018-03-20T23:33:50.963Z,0.60
2018-03-20T23:36:17.892Z,0.50
2018-03-20T23:38:45.574Z,0.50
2018-03-20T23:41:12.550Z,0.50
2018-03-20T23:43:39.502Z,0.60
2018-03-20T23:46:06.366Z,0.50
2018-03-20T23:48:33.319Z,0.60
2018-03-20T23:51:00.202Z,0.50
2018-03-20T23:53:27.076Z,0.40
2018-03-20T23:55:54.119Z,0.30
2018-03-20T23:58:20.990Z,0.10
